sensor_id;sensor_type;location;lat;lon;timestamp;pressure;altitude;pressure_sealevel;temperature;humidity
57102;BME280;42982;54.558;18.508;2022-08-20T00:01:03;100301.19;;;25.49;74.63
57102;BME280;42982;54.558;18.508;2022-08-20T00:02:06;100291.38;;;25.48;75.10
57102;BME280;42982;54.558;18.508;2022-08-20T00:03:22;100298.03;;;25.47;74.63
57102;BME280;42982;54.558;18.508;2022-08-20T00:04:24;100292.94;;;25.46;73.89
57102;BME280;42982;54.558;18.508;2022-08-20T00:05:30;100296.47;;;25.46;74.05
57102;BME280;42982;54.558;18.508;2022-08-20T00:06:35;100294.13;;;25.48;73.91
57102;BME280;42982;54.558;18.508;2022-08-20T00:07:37;100298.44;;;25.49;73.93
57102;BME280;42982;54.558;18.508;2022-08-20T00:08:44;100296.09;;;25.51;74.01
57102;BME280;42982;54.558;18.508;2022-08-20T00:09:51;100302.75;;;25.50;73.93
57102;BME280;42982;54.558;18.508;2022-08-20T00:10:57;100302.75;;;25.50;74.07
57102;BME280;42982;54.558;18.508;2022-08-20T00:12:06;100304.72;;;25.42;74.95
57102;BME280;42982;54.558;18.508;2022-08-20T00:13:13;100297.66;;;25.45;74.63
57102;BME280;42982;54.558;18.508;2022-08-20T00:14:20;100293.72;;;25.46;73.73
57102;BME280;42982;54.558;18.508;2022-08-20T00:15:26;100302.38;;;25.48;73.24
57102;BME280;42982;54.558;18.508;2022-08-20T00:16:35;100299.63;;;25.48;73.23
57102;BME280;42982;54.558;18.508;2022-08-20T00:17:37;100298.44;;;25.49;73.12
57102;BME280;42982;54.558;18.508;2022-08-20T00:18:39;100295.69;;;25.49;72.96
57102;BME280;42982;54.558;18.508;2022-08-20T00:19:42;100299.22;;;25.50;72.85
57102;BME280;42982;54.558;18.508;2022-08-20T00:20:46;100293.72;;;25.50;72.70
57102;BME280;42982;54.558;18.508;2022-08-20T00:21:49;100300.78;;;25.47;72.83
57102;BME280;42982;54.558;18.508;2022-08-20T00:22:56;100297.63;;;25.41;72.46
57102;BME280;42982;54.558;18.508;2022-08-20T00:23:59;100304.31;;;25.44;72.68
57102;BME280;42982;54.558;18.508;2022-08-20T00:25:11;100307.06;;;25.44;72.83
57102;BME280;42982;54.558;18.508;2022-08-20T00:26:16;100300.41;;;25.45;73.40
57102;BME280;42982;54.558;18.508;2022-08-20T00:27:20;100305.91;;;25.45;73.24
57102;BME280;42982;54.558;18.508;2022-08-20T00:28:25;100297.66;;;25.45;73.30
57102;BME280;42982;54.558;18.508;2022-08-20T00:29:32;100305.50;;;25.47;73.13
57102;BME280;42982;54.558;18.508;2022-08-20T00:30:37;100301.19;;;25.46;73.28
57102;BME280;42982;54.558;18.508;2022-08-20T00:31:39;100298.81;;;25.44;73.06
57102;BME280;42982;54.558;18.508;2022-08-20T00:32:47;100301.19;;;25.46;72.85
57102;BME280;42982;54.558;18.508;2022-08-20T00:33:50;100303.16;;;25.45;73.38
57102;BME280;42982;54.558;18.508;2022-08-20T00:34:55;100301.97;;;25.42;73.31
57102;BME280;42982;54.558;18.508;2022-08-20T00:35:57;100296.84;;;25.41;73.08
57102;BME280;42982;54.558;18.508;2022-08-20T00:37:08;100298.78;;;25.40;72.93
57102;BME280;42982;54.558;18.508;2022-08-20T00:38:13;100307.84;;;25.41;72.46
57102;BME280;42982;54.558;18.508;2022-08-20T00:39:17;100300.38;;;25.41;72.56
57102;BME280;42982;54.558;18.508;2022-08-20T00:40:27;100304.28;;;25.40;72.52
57102;BME280;42982;54.558;18.508;2022-08-20T00:41:29;100299.56;;;25.37;72.44
57102;BME280;42982;54.558;18.508;2022-08-20T00:42:42;100298.00;;;25.40;72.82
57102;BME280;42982;54.558;18.508;2022-08-20T00:45:17;100294.47;;;25.39;71.77
57102;BME280;42982;54.558;18.508;2022-08-20T00:46:23;100296.84;;;25.41;71.61
57102;BME280;42982;54.558;18.508;2022-08-20T00:47:28;100294.09;;;25.41;71.90
57102;BME280;42982;54.558;18.508;2022-08-20T00:48:35;100292.50;;;25.40;72.04
57102;BME280;42982;54.558;18.508;2022-08-20T00:49:41;100289.38;;;25.38;72.37
57102;BME280;42982;54.558;18.508;2022-08-20T00:50:43;100293.69;;;25.39;71.85
57102;BME280;42982;54.558;18.508;2022-08-20T00:53:01;100295.25;;;25.40;71.83
57102;BME280;42982;54.558;18.508;2022-08-20T00:54:12;100307.84;;;25.41;72.31
57102;BME280;42982;54.558;18.508;2022-08-20T00:55:15;100314.53;;;25.40;72.60
57102;BME280;42982;54.558;18.508;2022-08-20T00:56:21;100307.03;;;25.37;73.01
57102;BME280;42982;54.558;18.508;2022-08-20T00:57:29;100309.41;;;25.35;73.43
57102;BME280;42982;54.558;18.508;2022-08-20T00:58:38;100309.41;;;25.35;73.39
57102;BME280;42982;54.558;18.508;2022-08-20T00:59:43;100301.53;;;25.37;73.45
57102;BME280;42982;54.558;18.508;2022-08-20T01:00:47;100305.47;;;25.36;73.93
57102;BME280;42982;54.558;18.508;2022-08-20T01:01:52;100306.66;;;25.35;74.37
57102;BME280;42982;54.558;18.508;2022-08-20T01:02:57;100303.84;;;25.31;74.66
57102;BME280;42982;54.558;18.508;2022-08-20T01:03:59;100321.19;;;25.32;74.37
57102;BME280;42982;54.558;18.508;2022-08-20T01:05:05;100311.75;;;25.33;74.26
57102;BME280;42982;54.558;18.508;2022-08-20T01:06:12;100318.41;;;25.32;74.67
57102;BME280;42982;54.558;18.508;2022-08-20T01:07:16;100316.03;;;25.30;74.65
57102;BME280;42982;54.558;18.508;2022-08-20T01:08:21;100319.19;;;25.29;74.56
57102;BME280;42982;54.558;18.508;2022-08-20T01:09:27;100312.06;;;25.24;74.93
57102;BME280;42982;54.558;18.508;2022-08-20T01:10:35;100311.28;;;25.24;74.76
57102;BME280;42982;54.558;18.508;2022-08-20T01:11:37;100307.72;;;25.19;74.46
57102;BME280;42982;54.558;18.508;2022-08-20T01:12:46;100306.13;;;25.18;74.70
57102;BME280;42982;54.558;18.508;2022-08-20T01:13:51;100299.47;;;25.19;74.52
57102;BME280;42982;54.558;18.508;2022-08-20T01:14:54;100304.56;;;25.17;73.67
57102;BME280;42982;54.558;18.508;2022-08-20T01:16:01;100297.50;;;25.16;73.80
57102;BME280;42982;54.558;18.508;2022-08-20T01:17:06;100309.28;;;25.13;74.02
57102;BME280;42982;54.558;18.508;2022-08-20T01:18:16;100303.78;;;25.17;73.91
57102;BME280;42982;54.558;18.508;2022-08-20T01:19:28;100308.53;;;25.20;73.52
57102;BME280;42982;54.558;18.508;2022-08-20T01:20:40;100307.72;;;25.16;73.61
57102;BME280;42982;54.558;18.508;2022-08-20T01:21:44;100300.63;;;25.18;73.72
57102;BME280;42982;54.558;18.508;2022-08-20T01:23:05;100304.56;;;25.17;73.19
57102;BME280;42982;54.558;18.508;2022-08-20T01:24:36;100307.66;;;25.12;73.04
57102;BME280;42982;54.558;18.508;2022-08-20T01:26:20;100311.63;;;25.18;73.54
57102;BME280;42982;54.558;18.508;2022-08-20T01:27:32;100312.03;;;25.13;73.47
57102;BME280;42982;54.558;18.508;2022-08-20T01:29:47;100306.91;;;25.15;73.26
57102;BME280;42982;54.558;18.508;2022-08-20T01:30:54;100303.75;;;25.13;72.73
57102;BME280;42982;54.558;18.508;2022-08-20T01:31:58;100303.00;;;25.16;72.80
57102;BME280;42982;54.558;18.508;2022-08-20T01:33:04;100295.94;;;25.19;72.84
57102;BME280;42982;54.558;18.508;2022-08-20T01:34:10;100285.72;;;25.19;73.14
57102;BME280;42982;54.558;18.508;2022-08-20T01:35:20;100286.09;;;25.18;73.17
57102;BME280;42982;54.558;18.508;2022-08-20T01:36:34;100283.25;;;25.07;72.91
57102;BME280;42982;54.558;18.508;2022-08-20T01:37:38;100291.50;;;25.07;73.68
57102;BME280;42982;54.558;18.508;2022-08-20T01:38:43;100289.91;;;25.06;73.23
57102;BME280;42982;54.558;18.508;2022-08-20T01:39:47;100284.81;;;25.08;73.65
57102;BME280;42982;54.558;18.508;2022-08-20T01:43:28;100274.59;;;25.05;73.82
57102;BME280;42982;54.558;18.508;2022-08-20T01:44:34;100267.91;;;25.06;73.64
57102;BME280;42982;54.558;18.508;2022-08-20T01:45:39;100278.53;;;25.04;73.18
57102;BME280;42982;54.558;18.508;2022-08-20T01:46:45;100281.28;;;25.08;73.87
57102;BME280;42982;54.558;18.508;2022-08-20T01:47:47;100280.91;;;25.09;74.50
57102;BME280;42982;54.558;18.508;2022-08-20T01:48:56;100283.63;;;25.06;74.94
57102;BME280;42982;54.558;18.508;2022-08-20T01:50:16;100287.88;;;24.96;75.94
57102;BME280;42982;54.558;18.508;2022-08-20T01:51:24;100287.13;;;24.99;75.82
57102;BME280;42982;54.558;18.508;2022-08-20T01:53:37;100293.81;;;24.98;74.08
57102;BME280;42982;54.558;18.508;2022-08-20T01:54:42;100305.22;;;25.00;74.05
57102;BME280;42982;54.558;18.508;2022-08-20T01:55:43;100307.97;;;25.00;73.54
57102;BME280;42982;54.558;18.508;2022-08-20T01:57:09;100298.53;;;25.01;73.48
57102;BME280;42982;54.558;18.508;2022-08-20T01:58:13;100297.34;;;24.98;73.62
57102;BME280;42982;54.558;18.508;2022-08-20T01:59:20;100299.72;;;25.00;73.51
57102;BME280;42982;54.558;18.508;2022-08-20T02:00:24;100302.06;;;24.98;73.42
57102;BME280;42982;54.558;18.508;2022-08-20T02:01:38;100300.50;;;24.97;72.36
57102;BME280;42982;54.558;18.508;2022-08-20T02:02:41;100298.03;;;24.85;73.41
57102;BME280;42982;54.558;18.508;2022-08-20T02:03:46;100301.13;;;24.80;73.99
57102;BME280;42982;54.558;18.508;2022-08-20T02:04:51;100296.44;;;24.84;74.17
57102;BME280;42982;54.558;18.508;2022-08-20T02:05:55;100292.47;;;24.78;73.77
57102;BME280;42982;54.558;18.508;2022-08-20T02:07:01;100297.19;;;24.77;73.64
57102;BME280;42982;54.558;18.508;2022-08-20T02:08:11;100298.81;;;24.82;73.15
57102;BME280;42982;54.558;18.508;2022-08-20T02:09:13;100303.53;;;24.85;73.24
57102;BME280;42982;54.558;18.508;2022-08-20T02:10:18;100298.78;;;24.78;73.38
57102;BME280;42982;54.558;18.508;2022-08-20T02:11:20;100309.78;;;24.78;72.79
57102;BME280;42982;54.558;18.508;2022-08-20T02:12:25;100316.09;;;24.82;73.17
57102;BME280;42982;54.558;18.508;2022-08-20T02:13:29;100315.31;;;24.85;73.79
57102;BME280;42982;54.558;18.508;2022-08-20T02:14:42;100313.69;;;24.77;74.62
57102;BME280;42982;54.558;18.508;2022-08-20T02:15:47;100318.38;;;24.73;75.34
57102;BME280;42982;54.558;18.508;2022-08-20T02:16:57;100310.91;;;24.73;75.16
57102;BME280;42982;54.558;18.508;2022-08-20T02:18:03;100308.88;;;24.63;74.69
57102;BME280;42982;54.558;18.508;2022-08-20T02:19:14;100312.41;;;24.64;75.24
57102;BME280;42982;54.558;18.508;2022-08-20T02:20:19;100313.22;;;24.68;75.87
57102;BME280;42982;54.558;18.508;2022-08-20T02:21:31;100316.22;;;24.52;76.27
57102;BME280;42982;54.558;18.508;2022-08-20T02:22:44;100320.16;;;24.51;76.72
57102;BME280;42982;54.558;18.508;2022-08-20T02:23:52;100328.00;;;24.52;77.24
57102;BME280;42982;54.558;18.508;2022-08-20T02:24:53;100327.63;;;24.54;76.81
57102;BME280;42982;54.558;18.508;2022-08-20T02:25:58;100329.97;;;24.52;76.83
57102;BME280;42982;54.558;18.508;2022-08-20T02:27:00;100332.34;;;24.54;76.70
57102;BME280;42982;54.558;18.508;2022-08-20T02:28:08;100332.72;;;24.52;75.84
57102;BME280;42982;54.558;18.508;2022-08-20T02:29:11;100335.38;;;24.41;76.33
57102;BME280;42982;54.558;18.508;2022-08-20T02:30:22;100333.06;;;24.47;76.24
57102;BME280;42982;54.558;18.508;2022-08-20T02:31:31;100342.47;;;24.46;76.65
57102;BME280;42982;54.558;18.508;2022-08-20T02:32:33;100331.50;;;24.49;76.72
57102;BME280;42982;54.558;18.508;2022-08-20T02:33:40;100338.22;;;24.52;77.25
57102;BME280;42982;54.558;18.508;2022-08-20T02:34:42;100342.50;;;24.49;77.68
57102;BME280;42982;54.558;18.508;2022-08-20T02:35:46;100348.00;;;24.49;78.07
57102;BME280;42982;54.558;18.508;2022-08-20T02:36:48;100344.84;;;24.47;78.35
57102;BME280;42982;54.558;18.508;2022-08-20T02:37:51;100352.69;;;24.49;78.55
57102;BME280;42982;54.558;18.508;2022-08-20T02:38:55;100352.66;;;24.45;78.65
57102;BME280;42982;54.558;18.508;2022-08-20T02:39:57;100350.34;;;24.47;78.72
57102;BME280;42982;54.558;18.508;2022-08-20T02:41:00;100359.72;;;24.43;78.78
57102;BME280;42982;54.558;18.508;2022-08-20T02:42:07;100356.13;;;24.39;79.17
57102;BME280;42982;54.558;18.508;2022-08-20T02:43:12;100364.41;;;24.42;78.97
57102;BME280;42982;54.558;18.508;2022-08-20T02:44:17;100358.94;;;24.42;78.95
57102;BME280;42982;54.558;18.508;2022-08-20T02:45:29;100355.28;;;24.35;79.68
57102;BME280;42982;54.558;18.508;2022-08-20T02:46:35;100361.19;;;24.37;80.04
57102;BME280;42982;54.558;18.508;2022-08-20T02:47:40;100355.69;;;24.37;80.25
57102;BME280;42982;54.558;18.508;2022-08-20T02:48:47;100359.63;;;24.36;80.09
57102;BME280;42982;54.558;18.508;2022-08-20T02:49:48;100351.00;;;24.37;79.07
57102;BME280;42982;54.558;18.508;2022-08-20T02:50:56;100346.28;;;24.38;78.57
57102;BME280;42982;54.558;18.508;2022-08-20T02:51:58;100345.84;;;24.32;78.56
57102;BME280;42982;54.558;18.508;2022-08-20T02:52:59;100342.25;;;24.24;78.75
57102;BME280;42982;54.558;18.508;2022-08-20T02:54:05;100333.59;;;24.26;79.10
57102;BME280;42982;54.558;18.508;2022-08-20T02:55:10;100332.03;;;24.25;79.05
57102;BME280;42982;54.558;18.508;2022-08-20T02:56:18;100338.31;;;24.25;79.22
57102;BME280;42982;54.558;18.508;2022-08-20T02:57:23;100329.28;;;24.25;79.44
57102;BME280;42982;54.558;18.508;2022-08-20T02:58:28;100335.94;;;24.24;79.75
57102;BME280;42982;54.558;18.508;2022-08-20T02:59:30;100342.25;;;24.24;79.54
57102;BME280;42982;54.558;18.508;2022-08-20T03:00:34;100340.25;;;24.21;79.70
57102;BME280;42982;54.558;18.508;2022-08-20T03:01:39;100340.25;;;24.21;79.03
57102;BME280;42982;54.558;18.508;2022-08-20T03:02:44;100343.78;;;24.22;78.87
57102;BME280;42982;54.558;18.508;2022-08-20T03:03:46;100345.00;;;24.24;78.52
57102;BME280;42982;54.558;18.508;2022-08-20T03:04:49;100342.25;;;24.24;78.35
57102;BME280;42982;54.558;18.508;2022-08-20T03:05:57;100335.16;;;24.23;77.95
57102;BME280;42982;54.558;18.508;2022-08-20T03:07:06;100332.00;;;24.21;77.73
57102;BME280;42982;54.558;18.508;2022-08-20T03:08:12;100328.06;;;24.19;77.63
57102;BME280;42982;54.558;18.508;2022-08-20T03:09:19;100331.59;;;24.19;77.70
57102;BME280;42982;54.558;18.508;2022-08-20T03:10:30;100334.34;;;24.19;78.04
57102;BME280;42982;54.558;18.508;2022-08-20T03:11:37;100339.00;;;24.15;78.72
57102;BME280;42982;54.558;18.508;2022-08-20T03:12:45;100344.44;;;24.12;79.17
57102;BME280;42982;54.558;18.508;2022-08-20T03:13:49;100336.91;;;24.05;79.33
57102;BME280;42982;54.558;18.508;2022-08-20T03:14:55;100336.53;;;24.07;79.80
57102;BME280;42982;54.558;18.508;2022-08-20T03:16:04;100343.28;;;24.13;79.41
57102;BME280;42982;54.558;18.508;2022-08-20T03:17:08;100343.69;;;24.15;79.55
57102;BME280;42982;54.558;18.508;2022-08-20T03:18:14;100347.59;;;24.14;79.42
57102;BME280;42982;54.558;18.508;2022-08-20T03:19:17;100343.31;;;24.16;79.39
57102;BME280;42982;54.558;18.508;2022-08-20T03:20:19;100346.78;;;24.10;78.94
57102;BME280;42982;54.558;18.508;2022-08-20T03:21:26;100349.88;;;24.08;77.97
57102;BME280;42982;54.558;18.508;2022-08-20T03:22:29;100349.88;;;24.08;78.45
57102;BME280;42982;54.558;18.508;2022-08-20T03:23:33;100355.41;;;24.12;78.68
57102;BME280;42982;54.558;18.508;2022-08-20T03:24:40;100360.34;;;23.95;79.83
57102;BME280;42982;54.558;18.508;2022-08-20T03:25:43;100359.97;;;23.97;79.62
57102;BME280;42982;54.558;18.508;2022-08-20T03:26:46;100367.03;;;23.98;80.18
57102;BME280;42982;54.558;18.508;2022-08-20T03:27:54;100370.44;;;23.88;80.62
57102;BME280;42982;54.558;18.508;2022-08-20T03:28:59;100376.31;;;23.86;80.70
57102;BME280;42982;54.558;18.508;2022-08-20T03:30:08;100381.94;;;23.97;80.60
57102;BME280;42982;54.558;18.508;2022-08-20T03:31:12;100373.72;;;23.97;80.81
57102;BME280;42982;54.558;18.508;2022-08-20T03:32:17;100391.72;;;23.94;80.96
57102;BME280;42982;54.558;18.508;2022-08-20T03:33:26;100383.91;;;23.96;80.68
57102;BME280;42982;54.558;18.508;2022-08-20T03:34:28;100383.50;;;23.98;80.80
57102;BME280;42982;54.558;18.508;2022-08-20T03:35:31;100391.31;;;23.96;80.23
57102;BME280;42982;54.558;18.508;2022-08-20T03:36:33;100388.97;;;23.94;80.17
57102;BME280;42982;54.558;18.508;2022-08-20T03:37:38;100390.53;;;23.95;80.73
57102;BME280;42982;54.558;18.508;2022-08-20T03:38:40;100389.31;;;23.93;80.50
57102;BME280;42982;54.558;18.508;2022-08-20T03:39:42;100385.78;;;23.92;80.11
57102;BME280;42982;54.558;18.508;2022-08-20T03:40:46;100392.06;;;23.93;79.99
57102;BME280;42982;54.558;18.508;2022-08-20T03:41:49;100392.84;;;23.90;80.54
57102;BME280;42982;54.558;18.508;2022-08-20T03:42:51;100390.72;;;23.79;80.23
57102;BME280;42982;54.558;18.508;2022-08-20T03:43:57;100389.50;;;23.77;79.42
57102;BME280;42982;54.558;18.508;2022-08-20T03:45:00;100395.28;;;23.68;80.10
57102;BME280;42982;54.558;18.508;2022-08-20T03:46:05;100394.59;;;23.75;80.51
57102;BME280;42982;54.558;18.508;2022-08-20T03:47:13;100396.97;;;23.76;80.50
57102;BME280;42982;54.558;18.508;2022-08-20T03:48:19;100398.19;;;23.79;80.30
57102;BME280;42982;54.558;18.508;2022-08-20T03:49:23;100396.66;;;23.81;79.82
57102;BME280;42982;54.558;18.508;2022-08-20T03:50:31;100402.16;;;23.81;79.92
57102;BME280;42982;54.558;18.508;2022-08-20T03:51:38;100408.41;;;23.82;80.31
57102;BME280;42982;54.558;18.508;2022-08-20T03:52:40;100401.31;;;23.77;79.94
57102;BME280;42982;54.558;18.508;2022-08-20T03:53:44;100402.09;;;23.78;80.23
57102;BME280;42982;54.558;18.508;2022-08-20T03:54:49;100410.69;;;23.76;80.38
57102;BME280;42982;54.558;18.508;2022-08-20T03:56:04;100402.09;;;23.78;80.54
57102;BME280;42982;54.558;18.508;2022-08-20T03:57:14;100411.94;;;23.82;80.67
57102;BME280;42982;54.558;18.508;2022-08-20T03:58:16;100399.81;;;23.84;80.85
57102;BME280;42982;54.558;18.508;2022-08-20T03:59:27;100404.16;;;23.85;80.96
57102;BME280;42982;54.558;18.508;2022-08-20T04:00:56;100406.88;;;23.85;80.85
57102;BME280;42982;54.558;18.508;2022-08-20T04:02:01;100405.31;;;23.84;80.95
57102;BME280;42982;54.558;18.508;2022-08-20T04:03:04;100399.44;;;23.85;80.63
57102;BME280;42982;54.558;18.508;2022-08-20T04:04:10;100405.38;;;23.87;80.75
57102;BME280;42982;54.558;18.508;2022-08-20T04:05:15;100407.31;;;23.87;80.75
57102;BME280;42982;54.558;18.508;2022-08-20T04:06:20;100409.25;;;23.86;81.18
57102;BME280;42982;54.558;18.508;2022-08-20T04:07:28;100405.31;;;23.84;81.39
57102;BME280;42982;54.558;18.508;2022-08-20T04:08:40;100403.75;;;23.86;81.47
57102;BME280;42982;54.558;18.508;2022-08-20T04:09:45;100400.22;;;23.86;80.94
57102;BME280;42982;54.558;18.508;2022-08-20T04:10:51;100402.19;;;23.85;81.19
57102;BME280;42982;54.558;18.508;2022-08-20T04:11:53;100402.22;;;23.89;80.91
57102;BME280;42982;54.558;18.508;2022-08-20T04:12:59;100400.66;;;23.88;80.64
57102;BME280;42982;54.558;18.508;2022-08-20T04:14:05;100400.97;;;23.82;80.57
57102;BME280;42982;54.558;18.508;2022-08-20T04:15:14;100404.50;;;23.83;80.63
57102;BME280;42982;54.558;18.508;2022-08-20T04:16:16;100395.91;;;23.85;80.85
57102;BME280;42982;54.558;18.508;2022-08-20T04:17:19;100399.00;;;23.83;80.79
57102;BME280;42982;54.558;18.508;2022-08-20T04:18:23;100407.63;;;23.81;80.37
57102;BME280;42982;54.558;18.508;2022-08-20T04:19:26;100405.31;;;23.84;80.82
57102;BME280;42982;54.558;18.508;2022-08-20T04:20:28;100404.84;;;23.78;81.30
57102;BME280;42982;54.558;18.508;2022-08-20T04:21:35;100409.22;;;23.82;81.23
57102;BME280;42982;54.558;18.508;2022-08-20T04:22:43;100414.69;;;23.82;81.29
57102;BME280;42982;54.558;18.508;2022-08-20T04:23:47;100415.91;;;23.85;81.30
57102;BME280;42982;54.558;18.508;2022-08-20T04:24:52;100415.97;;;23.89;81.28
57102;BME280;42982;54.558;18.508;2022-08-20T04:26:00;100423.06;;;23.90;81.20
57102;BME280;42982;54.558;18.508;2022-08-20T04:27:02;100419.13;;;23.91;80.96
57102;BME280;42982;54.558;18.508;2022-08-20T04:28:15;100415.22;;;23.92;81.28
57102;BME280;42982;54.558;18.508;2022-08-20T04:29:25;100415.56;;;23.87;81.42
57102;BME280;42982;54.558;18.508;2022-08-20T04:30:33;100413.22;;;23.89;81.40
57102;BME280;42982;54.558;18.508;2022-08-20T04:31:37;100421.84;;;23.87;81.17
57102;BME280;42982;54.558;18.508;2022-08-20T04:32:45;100425.81;;;23.90;81.47
57102;BME280;42982;54.558;18.508;2022-08-20T04:33:47;100421.88;;;23.91;80.89
57102;BME280;42982;54.558;18.508;2022-08-20T04:34:49;100423.88;;;23.94;81.17
57102;BME280;42982;54.558;18.508;2022-08-20T04:35:52;100421.91;;;23.94;80.98
57102;BME280;42982;54.558;18.508;2022-08-20T04:36:55;100422.72;;;23.95;81.33
57102;BME280;42982;54.558;18.508;2022-08-20T04:38:00;100419.84;;;23.84;81.82
57102;BME280;42982;54.558;18.508;2022-08-20T04:39:03;100421.88;;;23.91;81.70
57102;BME280;42982;54.558;18.508;2022-08-20T04:40:10;100423.09;;;23.93;81.75
57102;BME280;42982;54.558;18.508;2022-08-20T04:41:40;100424.28;;;23.96;81.71
57102;BME280;42982;54.558;18.508;2022-08-20T04:42:42;100425.88;;;23.97;81.57
57102;BME280;42982;54.558;18.508;2022-08-20T04:43:47;100424.28;;;23.96;81.88
57102;BME280;42982;54.558;18.508;2022-08-20T04:44:49;100422.75;;;23.98;81.73
57102;BME280;42982;54.558;18.508;2022-08-20T04:45:55;100426.28;;;23.99;81.83
57102;BME280;42982;54.558;18.508;2022-08-20T04:46:59;100425.13;;;24.00;82.05
57102;BME280;42982;54.558;18.508;2022-08-20T04:48:03;100418.47;;;24.01;82.25
57102;BME280;42982;54.558;18.508;2022-08-20T04:49:08;100420.44;;;24.00;82.02
57102;BME280;42982;54.558;18.508;2022-08-20T04:50:11;100422.00;;;24.01;82.10
57102;BME280;42982;54.558;18.508;2022-08-20T04:51:17;100427.50;;;24.01;82.32
57102;BME280;42982;54.558;18.508;2022-08-20T04:52:18;100431.84;;;24.02;81.98
57102;BME280;42982;54.558;18.508;2022-08-20T04:53:26;100427.13;;;24.03;82.16
57102;BME280;42982;54.558;18.508;2022-08-20T04:54:32;100414.19;;;24.03;82.15
57102;BME280;42982;54.558;18.508;2022-08-20T04:55:35;100422.78;;;24.02;82.26
57102;BME280;42982;54.558;18.508;2022-08-20T04:56:42;100424.34;;;23.99;82.53
57102;BME280;42982;54.558;18.508;2022-08-20T04:57:44;100420.44;;;24.00;82.66
57102;BME280;42982;54.558;18.508;2022-08-20T04:58:48;100416.44;;;23.94;82.55
57102;BME280;42982;54.558;18.508;2022-08-20T04:59:53;100410.94;;;23.94;82.96
57102;BME280;42982;54.558;18.508;2022-08-20T05:01:05;100407.81;;;23.96;82.62
57102;BME280;42982;54.558;18.508;2022-08-20T05:02:10;100410.97;;;23.98;82.48
57102;BME280;42982;54.558;18.508;2022-08-20T05:03:14;100404.75;;;24.01;82.29
57102;BME280;42982;54.558;18.508;2022-08-20T05:04:21;100406.31;;;24.02;82.27
57102;BME280;42982;54.558;18.508;2022-08-20T05:05:27;100412.66;;;24.06;82.09
57102;BME280;42982;54.558;18.508;2022-08-20T05:06:39;100408.38;;;24.09;82.27
57102;BME280;42982;54.558;18.508;2022-08-20T05:07:43;100408.41;;;24.12;81.96
57102;BME280;42982;54.558;18.508;2022-08-20T05:09:06;100410.34;;;24.12;81.84
57102;BME280;42982;54.558;18.508;2022-08-20T05:10:10;100409.59;;;24.15;81.71
57102;BME280;42982;54.558;18.508;2022-08-20T05:11:13;100408.81;;;24.14;81.70
57102;BME280;42982;54.558;18.508;2022-08-20T05:12:15;100409.56;;;24.11;81.73
57102;BME280;42982;54.558;18.508;2022-08-20T05:13:24;100410.00;;;24.13;81.66
57102;BME280;42982;54.558;18.508;2022-08-20T05:14:28;100409.59;;;24.15;81.49
57102;BME280;42982;54.558;18.508;2022-08-20T05:15:35;100408.41;;;24.12;81.74
57102;BME280;42982;54.558;18.508;2022-08-20T05:16:42;100400.94;;;24.09;82.05
57102;BME280;42982;54.558;18.508;2022-08-20T05:17:44;100402.97;;;24.16;82.11
57102;BME280;42982;54.558;18.508;2022-08-20T05:18:51;100404.19;;;24.18;82.20
57102;BME280;42982;54.558;18.508;2022-08-20T05:19:55;100395.09;;;24.14;82.38
57102;BME280;42982;54.558;18.508;2022-08-20T05:21:00;100403.22;;;24.03;82.84
57102;BME280;42982;54.558;18.508;2022-08-20T05:22:14;100397.75;;;24.07;82.71
57102;BME280;42982;54.558;18.508;2022-08-20T05:23:18;100402.50;;;24.10;83.29
57102;BME280;42982;54.558;18.508;2022-08-20T05:24:23;100402.53;;;24.14;83.30
57102;BME280;42982;54.558;18.508;2022-08-20T05:25:31;100404.94;;;24.15;83.18
57102;BME280;42982;54.558;18.508;2022-08-20T05:26:33;100404.53;;;24.17;82.91
57102;BME280;42982;54.558;18.508;2022-08-20T05:27:38;100404.19;;;24.18;83.06
57102;BME280;42982;54.558;18.508;2022-08-20T05:28:43;100407.69;;;24.15;83.04
57102;BME280;42982;54.558;18.508;2022-08-20T05:29:45;100406.50;;;24.16;83.40
57102;BME280;42982;54.558;18.508;2022-08-20T05:30:51;100413.59;;;24.21;83.41
57102;BME280;42982;54.558;18.508;2022-08-20T05:31:57;100417.16;;;24.21;83.66
57102;BME280;42982;54.558;18.508;2022-08-20T05:33:03;100413.66;;;24.24;83.09
57102;BME280;42982;54.558;18.508;2022-08-20T05:34:08;100416.03;;;24.26;82.94
57102;BME280;42982;54.558;18.508;2022-08-20T05:35:13;100418.81;;;24.29;82.65
57102;BME280;42982;54.558;18.508;2022-08-20T05:36:15;100420.00;;;24.28;82.50
57102;BME280;42982;54.558;18.508;2022-08-20T05:37:22;100415.28;;;24.29;82.03
57102;BME280;42982;54.558;18.508;2022-08-20T05:38:27;100421.59;;;24.33;81.82
57102;BME280;42982;54.558;18.508;2022-08-20T05:39:31;100409.06;;;24.36;82.11
57102;BME280;42982;54.558;18.508;2022-08-20T05:40:33;100410.34;;;24.42;81.95
57102;BME280;42982;54.558;18.508;2022-08-20T05:41:36;100399.78;;;24.44;81.95
57102;BME280;42982;54.558;18.508;2022-08-20T05:42:41;100406.09;;;24.48;81.73
57102;BME280;42982;54.558;18.508;2022-08-20T05:43:46;100399.06;;;24.50;81.11
57102;BME280;42982;54.558;18.508;2022-08-20T05:44:48;100398.38;;;24.61;80.98
57102;BME280;42982;54.558;18.508;2022-08-20T05:45:50;100388.59;;;24.63;80.42
57102;BME280;42982;54.558;18.508;2022-08-20T05:46:55;100389.78;;;24.66;80.65
57102;BME280;42982;54.558;18.508;2022-08-20T05:48:06;100388.53;;;24.56;80.58
57102;BME280;42982;54.558;18.508;2022-08-20T05:49:19;100390.09;;;24.57;81.27